Time;durP1;ratioP1;P1;durP2;ratioP2;P2;SDS_P1;SDS_P2;PMS_P1;PMS_P2;Temp;Humidity;BMP_temperature;BMP_pressure;BME280_temperature;BME280_humidity;BME280_pressure;Samples;Min_cycle;Max_cycle;Signal;HPM_P1;HPM_P2
2023/08/23 00:01:09;;;;;;;12.82;9.05;;;15.80;99.90;;;;;;5008855;28;20068;-62
2023/08/23 00:03:36;;;;;;;10.85;8.73;;;16.30;99.90;;;;;;5010636;28;20052;-62
2023/08/23 00:06:02;;;;;;;15.00;9.98;;;16.50;99.90;;;;;;5007835;28;20056;-62
2023/08/23 00:08:27;;;;;;;13.82;10.65;;;15.80;99.90;;;;;;5010055;28;20407;-62
2023/08/23 00:10:54;;;;;;;15.45;9.98;;;16.70;99.90;;;;;;5010411;28;20042;-62
2023/08/23 00:13:21;;;;;;;16.42;11.98;;;16.20;99.90;;;;;;5009494;28;20484;-62
2023/08/23 00:15:46;;;;;;;17.02;11.80;;;16.00;99.90;;;;;;5009895;28;20117;-62
2023/08/23 00:18:12;;;;;;;16.15;11.65;;;15.60;99.90;;;;;;5006128;28;20120;-62
2023/08/23 00:20:38;;;;;;;16.85;10.80;;;16.80;99.90;;;;;;5008623;28;20038;-62
2023/08/23 00:23:04;;;;;;;15.60;11.77;;;16.40;99.90;;;;;;5004414;28;20041;-61
2023/08/23 00:25:29;;;;;;;18.75;12.95;;;16.50;99.90;;;;;;5008747;28;20038;-62
2023/08/23 00:27:55;;;;;;;18.27;12.48;;;16.50;99.90;;;;;;5008921;28;20095;-62
2023/08/23 00:30:21;;;;;;;18.77;12.25;;;16.20;99.90;;;;;;5009219;28;20252;-62
2023/08/23 00:32:46;;;;;;;15.73;11.80;;;16.50;99.90;;;;;;5007001;28;20038;-62
2023/08/23 00:35:12;;;;;;;15.23;10.25;;;16.20;99.90;;;;;;5005893;28;20061;-62
2023/08/23 00:37:38;;;;;;;12.73;9.43;;;16.20;99.90;;;;;;5003567;28;20522;-62
2023/08/23 00:40:05;;;;;;;11.48;8.15;;;16.20;99.90;;;;;;5004208;28;20061;-63
2023/08/23 00:42:31;;;;;;;10.77;8.25;;;15.30;99.90;;;;;;4990998;28;20046;-62
2023/08/23 00:44:57;;;;;;;12.63;9.00;;;16.00;99.90;;;;;;5007684;28;20037;-62
2023/08/23 00:47:23;;;;;;;10.55;8.00;;;15.60;99.90;;;;;;5005512;28;20053;-62
2023/08/23 00:49:49;;;;;;;11.02;8.55;;;15.30;99.90;;;;;;5001267;28;20052;-62
2023/08/23 00:52:16;;;;;;;10.80;7.75;;;15.10;99.90;;;;;;5007673;28;20053;-62
2023/08/23 00:54:41;;;;;;;13.10;9.63;;;16.30;99.90;;;;;;5008767;28;20105;-62
2023/08/23 00:57:07;;;;;;;12.57;9.43;;;15.10;99.90;;;;;;4999049;28;20070;-62
2023/08/23 00:59:35;;;;;;;15.38;10.98;;;15.60;99.90;;;;;;5003672;28;20124;-62
2023/08/23 01:02:01;;;;;;;17.50;12.80;;;16.10;99.90;;;;;;5004220;28;20045;-62
2023/08/23 01:04:27;;;;;;;18.65;12.73;;;15.50;99.90;;;;;;5008233;28;20119;-62
2023/08/23 01:07:26;;;;;;;19.65;13.57;;;15.70;99.90;;;;;;5001726;28;20534;-62
2023/08/23 01:10:02;;;;;;;17.55;13.18;;;16.20;99.90;;;;;;5003526;28;20145;-62
2023/08/23 01:12:34;;;;;;;18.33;12.32;;;15.70;99.90;;;;;;5008521;28;20045;-62
2023/08/23 01:15:05;;;;;;;21.10;13.75;;;15.90;99.90;;;;;;5008235;28;20500;-62
2023/08/23 01:17:32;;;;;;;20.58;12.32;;;15.90;99.90;;;;;;5021938;28;20076;-62
2023/08/23 01:19:59;;;;;;;18.65;11.82;;;16.60;99.90;;;;;;5007124;28;20030;-62
2023/08/23 01:22:28;;;;;;;19.70;12.38;;;;;;;;;;5007759;28;20095;-62
2023/08/23 01:24:55;;;;;;;14.93;11.00;;;16.60;99.90;;;;;;5007766;28;20119;-62
2023/08/23 01:27:20;;;;;;;12.88;8.75;;;16.20;99.90;;;;;;5008665;28;20081;-62
2023/08/23 01:29:47;;;;;;;14.45;9.77;;;15.60;99.90;;;;;;5008085;28;22331;-62
2023/08/23 01:32:30;;;;;;;14.52;9.40;;;15.70;99.90;;;;;;4988970;28;20096;-62
2023/08/23 01:35:07;;;;;;;14.48;9.35;;;16.20;99.90;;;;;;5003075;28;20034;-62
2023/08/23 01:37:33;;;;;;;12.77;9.20;;;15.90;99.90;;;;;;5006941;28;20076;-62
2023/08/23 01:40:01;;;;;;;13.02;7.82;;;16.10;99.90;;;;;;5007883;28;20046;-62
2023/08/23 01:42:27;;;;;;;12.45;9.20;;;16.20;99.90;;;;;;4990520;28;20041;-62
2023/08/23 01:44:52;;;;;;;13.35;9.20;;;16.20;99.90;;;;;;5009121;28;20471;-62
2023/08/23 01:47:18;;;;;;;13.75;9.38;;;16.30;99.90;;;;;;5007891;28;20451;-62
2023/08/23 01:49:44;;;;;;;12.48;8.25;;;16.30;99.90;;;;;;5003927;28;20096;-62
2023/08/23 01:52:10;;;;;;;14.52;9.02;;;16.20;99.90;;;;;;5008423;28;20042;-61
2023/08/23 01:54:36;;;;;;;16.88;10.32;;;16.10;99.90;;;;;;5008092;28;20091;-62
2023/08/23 01:57:01;;;;;;;15.48;11.18;;;16.30;99.90;;;;;;5001778;28;20034;-62
2023/08/23 01:59:27;;;;;;;13.60;9.23;;;15.80;99.90;;;;;;5008204;28;20042;-62
2023/08/23 02:01:53;;;;;;;14.32;9.35;;;16.30;99.90;;;;;;5006563;28;20034;-62
2023/08/23 02:04:19;;;;;;;11.50;8.85;;;16.10;99.90;;;;;;5005258;28;20030;-62
2023/08/23 02:06:45;;;;;;;11.48;8.85;;;16.10;99.90;;;;;;5006467;28;20066;-62
2023/08/23 02:09:11;;;;;;;11.43;8.25;;;16.30;99.90;;;;;;5007524;28;20127;-61
2023/08/23 02:11:37;;;;;;;10.90;8.15;;;16.50;99.90;;;;;;4987686;28;20042;-62
2023/08/23 02:14:03;;;;;;;10.38;7.35;;;15.80;99.90;;;;;;5002138;28;20252;-62
2023/08/23 02:16:29;;;;;;;11.80;7.95;;;16.20;99.90;;;;;;5006865;28;20034;-62
2023/08/23 02:18:55;;;;;;;12.35;8.88;;;15.40;99.90;;;;;;5011068;28;20034;-62
2023/08/23 02:21:22;;;;;;;12.98;9.23;;;16.90;99.90;;;;;;5004574;28;20030;-62
2023/08/23 02:23:48;;;;;;;11.38;8.20;;;15.50;99.90;;;;;;4990092;28;20120;-62
2023/08/23 02:26:14;;;;;;;15.38;9.82;;;16.10;99.90;;;;;;5006718;28;20080;-62
2023/08/23 02:28:40;;;;;;;12.25;9.10;;;16.10;99.90;;;;;;5004590;28;20045;-62
2023/08/23 02:31:06;;;;;;;13.70;9.63;;;15.90;99.90;;;;;;5007057;28;20573;-62
2023/08/23 02:33:31;;;;;;;14.02;10.80;;;15.70;99.90;;;;;;5006447;28;20038;-62
2023/08/23 02:35:57;;;;;;;17.10;12.27;;;16.40;99.90;;;;;;5005807;28;20487;-62
2023/08/23 02:38:23;;;;;;;15.52;10.90;;;15.80;99.90;;;;;;5005349;28;20468;-62
2023/08/23 02:40:48;;;;;;;20.20;12.02;;;15.70;99.90;;;;;;5006701;28;20462;-62
2023/08/23 02:43:14;;;;;;;15.13;10.30;;;16.20;99.90;;;;;;5006571;28;20439;-62
2023/08/23 02:45:40;;;;;;;14.73;10.65;;;15.50;99.90;;;;;;5006457;28;20065;-62
2023/08/23 02:48:10;;;;;;;11.68;9.18;;;16.40;99.90;;;;;;5004512;28;20038;-61
2023/08/23 02:50:36;;;;;;;11.82;8.27;;;16.30;99.90;;;;;;5007159;28;20096;-62
2023/08/23 02:53:02;;;;;;;12.18;9.65;;;16.60;99.90;;;;;;5008195;28;20048;-62
2023/08/23 02:55:28;;;;;;;14.05;10.10;;;16.60;99.90;;;;;;5004630;28;20038;-62
2023/08/23 02:57:53;;;;;;;13.25;9.90;;;16.30;99.90;;;;;;5005001;28;20037;-62
2023/08/23 03:00:19;;;;;;;15.82;11.73;;;16.40;99.90;;;;;;5009070;28;20045;-62
2023/08/23 03:02:45;;;;;;;17.05;12.00;;;16.50;99.90;;;;;;5010703;28;20510;-62
2023/08/23 03:05:11;;;;;;;15.95;12.18;;;16.50;99.90;;;;;;5007896;28;20671;-62
2023/08/23 03:07:36;;;;;;;16.63;11.65;;;16.50;99.90;;;;;;5009646;28;20037;-62
2023/08/23 03:10:02;;;;;;;18.63;13.15;;;16.70;99.90;;;;;;5011687;28;20038;-62
2023/08/23 03:12:28;;;;;;;18.58;13.52;;;16.60;1.00;;;;;;5010523;28;20046;-62
2023/08/23 03:14:54;;;;;;;19.58;14.40;;;16.30;7.70;;;;;;5007928;28;20457;-62
2023/08/23 03:17:19;;;;;;;16.33;13.02;;;15.70;6.90;;;;;;5010682;28;20026;-62
2023/08/23 03:19:45;;;;;;;20.88;14.25;;;16.50;12.80;;;;;;5010256;28;20033;-62
2023/08/23 03:22:11;;;;;;;21.35;14.65;;;16.40;12.50;;;;;;5009466;28;20045;-62
2023/08/23 03:24:36;;;;;;;22.60;14.57;;;16.60;35.20;;;;;;5009200;28;20038;-62
2023/08/23 03:27:02;;;;;;;25.15;14.35;;;16.90;24.60;;;;;;5008670;28;20124;-62
2023/08/23 03:29:28;;;;;;;20.95;15.57;;;16.70;28.10;;;;;;5010771;28;20053;-62
2023/08/23 03:31:53;;;;;;;24.52;17.17;;;16.60;53.10;;;;;;5009978;28;20046;-62
2023/08/23 03:34:19;;;;;;;24.73;16.38;;;16.40;56.40;;;;;;5001553;28;20038;-62
2023/08/23 03:36:45;;;;;;;25.67;16.45;;;16.60;71.50;;;;;;5006627;28;20507;-62
2023/08/23 03:39:10;;;;;;;25.50;18.75;;;16.80;77.60;;;;;;5010341;28;20038;-62
2023/08/23 03:41:36;;;;;;;26.45;17.77;;;16.70;94.60;;;;;;5010344;28;20046;-62
2023/08/23 03:44:02;;;;;;;22.98;16.65;;;16.70;99.90;;;;;;5010292;28;20121;-62
2023/08/23 03:46:28;;;;;;;18.98;14.82;;;16.20;95.90;;;;;;5009991;28;20042;-62
2023/08/23 03:48:53;;;;;;;22.23;15.65;;;16.60;95.70;;;;;;5010799;28;20129;-62
2023/08/23 03:51:19;;;;;;;24.13;15.90;;;17.30;99.90;;;;;;5016881;28;20037;-62
2023/08/23 03:53:45;;;;;;;27.23;16.70;;;17.00;99.90;;;;;;5009794;28;20037;-62
2023/08/23 03:56:10;;;;;;;24.75;16.42;;;16.80;99.90;;;;;;5008442;28;20044;-62
2023/08/23 03:58:36;;;;;;;25.48;17.60;;;16.80;99.90;;;;;;5009546;28;20033;-62
2023/08/23 04:01:02;;;;;;;22.05;14.73;;;16.80;99.40;;;;;;5008056;28;20075;-63
2023/08/23 04:03:28;;;;;;;20.83;15.05;;;16.90;97.90;;;;;;5009509;28;20045;-62
2023/08/23 04:05:53;;;;;;;25.45;15.82;;;16.70;96.70;;;;;;5009061;28;20053;-62
2023/08/23 04:08:19;;;;;;;21.33;16.00;;;17.60;97.30;;;;;;5006405;28;20045;-61
2023/08/23 04:10:51;;;;;;;18.42;13.63;;;16.80;96.20;;;;;;5008966;28;20064;-62
2023/08/23 04:13:17;;;;;;;19.48;13.07;;;16.40;98.30;;;;;;5007913;28;20049;-62
2023/08/23 04:15:44;;;;;;;18.45;13.70;;;16.50;95.10;;;;;;5008011;28;21095;-62
2023/08/23 04:18:10;;;;;;;16.73;12.80;;;16.60;97.70;;;;;;5007670;28;20526;-62
2023/08/23 04:20:36;;;;;;;19.38;13.50;;;16.60;97.40;;;;;;5005389;28;20130;-63
2023/08/23 04:23:02;;;;;;;18.58;13.75;;;16.40;98.50;;;;;;5006259;28;20407;-62
2023/08/23 04:25:28;;;;;;;18.17;13.52;;;16.00;97.30;;;;;;5006931;28;20602;-62
2023/08/23 04:27:54;;;;;;;16.27;12.38;;;16.80;98.00;;;;;;5008606;28;20124;-62
2023/08/23 04:30:20;;;;;;;19.83;13.15;;;15.90;97.40;;;;;;5009019;28;20099;-62
2023/08/23 04:32:45;;;;;;;21.40;15.20;;;16.20;96.30;;;;;;5009219;28;20049;-62
2023/08/23 04:35:11;;;;;;;16.13;11.73;;;15.80;95.20;;;;;;5007162;28;20113;-62
2023/08/23 04:37:37;;;;;;;17.10;12.30;;;16.30;94.60;;;;;;5007891;28;20073;-62
2023/08/23 04:40:04;;;;;;;18.77;13.02;;;16.40;92.80;;;;;;4989020;28;20450;-62
2023/08/23 04:42:31;;;;;;;19.38;13.38;;;16.00;91.80;;;;;;5005885;28;20092;-62
2023/08/23 04:44:59;;;;;;;15.57;12.00;;;16.30;91.10;;;;;;5003271;28;20061;-62
2023/08/23 04:47:25;;;;;;;20.33;13.02;;;16.30;91.20;;;;;;5007280;28;20037;-63
2023/08/23 04:49:50;;;;;;;20.42;13.88;;;16.40;91.30;;;;;;4997802;28;20587;-62
2023/08/23 04:52:16;;;;;;;18.88;13.40;;;16.60;89.80;;;;;;5003621;28;20546;-62
2023/08/23 04:54:42;;;;;;;22.27;15.35;;;16.40;90.90;;;;;;5004837;28;20037;-62
2023/08/23 04:57:07;;;;;;;17.63;12.77;;;16.20;91.70;;;;;;4999067;28;20096;-62
2023/08/23 04:59:33;;;;;;;18.65;13.57;;;16.50;90.80;;;;;;4999448;28;20452;-62
2023/08/23 05:01:59;;;;;;;17.95;13.02;;;15.60;88.40;;;;;;4999853;28;20034;-62
2023/08/23 05:04:24;;;;;;;18.33;15.13;;;16.40;87.40;;;;;;4999661;28;20082;-62
2023/08/23 05:06:50;;;;;;;24.85;17.10;;;16.50;87.70;;;;;;5003336;28;20380;-62
2023/08/23 05:09:16;;;;;;;21.38;16.50;;;15.10;89.90;;;;;;5002657;28;20035;-62
2023/08/23 05:11:42;;;;;;;21.13;15.95;;;;;;;;;;5003850;28;20038;-62
2023/08/23 05:14:08;;;;;;;16.63;12.32;;;16.30;92.80;;;;;;5004581;28;20043;-62
2023/08/23 05:16:34;;;;;;;18.98;14.35;;;16.70;94.80;;;;;;5005408;28;20045;-62
2023/08/23 05:18:59;;;;;;;23.42;15.85;;;16.40;92.60;;;;;;5008984;28;20030;-62
2023/08/23 05:21:25;;;;;;;29.50;18.65;;;16.10;93.30;;;;;;5007802;28;20096;-62
2023/08/23 05:23:51;;;;;;;26.88;18.63;;;15.60;93.40;;;;;;5004381;28;20042;-62
2023/08/23 05:26:16;;;;;;;24.90;16.35;;;16.40;96.90;;;;;;5007494;28;20042;-63
2023/08/23 05:28:42;;;;;;;24.02;17.38;;;16.20;99.90;;;;;;5007961;28;20065;-62
2023/08/23 05:31:08;;;;;;;22.98;16.65;;;16.20;99.90;;;;;;5006745;28;20053;-62
2023/08/23 05:33:33;;;;;;;21.15;17.25;;;16.50;99.90;;;;;;5004586;28;20034;-63
2023/08/23 05:35:59;;;;;;;24.55;18.58;;;16.20;99.90;;;;;;5004497;28;20034;-63
2023/08/23 05:38:25;;;;;;;23.27;17.98;;;16.70;99.90;;;;;;5005270;28;20026;-63
2023/08/23 05:40:51;;;;;;;29.38;18.63;;;16.50;99.90;;;;;;5006542;28;20050;-63
2023/08/23 05:43:17;;;;;;;26.60;18.20;;;15.70;99.90;;;;;;5007240;28;20511;-62
2023/08/23 05:45:44;;;;;;;23.75;16.80;;;16.70;99.90;;;;;;5006488;28;20033;-63
2023/08/23 05:48:09;;;;;;;23.50;17.95;;;16.50;99.90;;;;;;5009333;28;20080;-63
2023/08/23 05:50:35;;;;;;;24.80;18.40;;;17.00;99.90;;;;;;5005269;28;20136;-63
2023/08/23 05:53:01;;;;;;;24.77;18.15;;;16.10;99.90;;;;;;5003980;28;20053;-63
2023/08/23 05:55:26;;;;;;;26.55;19.35;;;16.90;99.90;;;;;;5006528;28;20040;-63
2023/08/23 05:57:52;;;;;;;26.35;19.52;;;16.80;99.90;;;;;;4998658;28;20176;-63
2023/08/23 06:00:18;;;;;;;30.65;20.83;;;16.70;99.90;;;;;;5005637;28;20037;-63
2023/08/23 06:02:44;;;;;;;27.27;21.27;;;16.70;99.90;;;;;;5004493;28;20119;-63
2023/08/23 06:05:13;;;;;;;30.90;22.52;;;16.70;99.90;;;;;;5004618;28;20044;-63
2023/08/23 06:07:40;;;;;;;32.15;21.15;;;16.80;99.90;;;;;;5006266;28;20041;-62
2023/08/23 06:10:06;;;;;;;27.92;19.35;;;16.90;99.90;;;;;;5004532;28;20511;-63
2023/08/23 06:12:31;;;;;;;23.60;18.15;;;17.40;99.90;;;;;;5008836;28;20084;-63
2023/08/23 06:14:57;;;;;;;27.42;19.98;;;17.10;99.90;;;;;;5006607;28;20046;-62
2023/08/23 06:17:25;;;;;;;25.70;18.58;;;17.10;99.90;;;;;;5008797;28;20041;-62
2023/08/23 06:19:51;;;;;;;23.98;17.85;;;17.00;99.90;;;;;;5007061;28;20096;-62
2023/08/23 06:22:17;;;;;;;24.10;18.35;;;17.10;99.90;;;;;;5005217;28;20038;-62
2023/08/23 06:24:43;;;;;;;26.48;18.58;;;16.80;99.90;;;;;;5004698;28;20042;-62
2023/08/23 06:27:08;;;;;;;23.02;17.95;;;17.20;99.90;;;;;;5004851;28;20034;-62
2023/08/23 06:29:34;;;;;;;28.38;19.35;;;17.60;99.90;;;;;;5007162;28;20057;-62
2023/08/23 06:31:59;;;;;;;23.50;16.90;;;17.40;99.90;;;;;;5006589;28;20084;-62
2023/08/23 06:34:25;;;;;;;22.23;18.35;;;17.20;99.90;;;;;;5004944;28;20412;-63
2023/08/23 06:36:51;;;;;;;27.35;19.58;;;18.20;99.90;;;;;;5009872;28;20124;-62
2023/08/23 06:39:17;;;;;;;22.15;16.10;;;17.70;99.90;;;;;;5008078;28;20121;-62
2023/08/23 06:41:43;;;;;;;25.15;16.65;;;17.60;99.90;;;;;;5006740;28;20037;-62
2023/08/23 06:44:08;;;;;;;27.42;17.52;;;17.40;99.90;;;;;;5005474;28;20088;-62
2023/08/23 06:46:34;;;;;;;25.35;17.48;;;17.60;99.90;;;;;;5010675;28;20107;-62
2023/08/23 06:49:00;;;;;;;27.25;18.00;;;17.50;99.90;;;;;;5009492;28;20041;-62
2023/08/23 06:51:27;;;;;;;23.67;17.65;;;17.70;99.90;;;;;;5009664;28;20042;-63
2023/08/23 06:53:53;;;;;;;23.30;16.25;;;18.30;99.90;;;;;;5002399;28;20180;-63
2023/08/23 06:56:19;;;;;;;21.92;15.50;;;18.20;99.90;;;;;;5007166;28;20046;-63
2023/08/23 06:58:44;;;;;;;22.80;15.80;;;17.70;99.90;;;;;;5007803;28;20042;-63
2023/08/23 07:01:14;;;;;;;24.30;16.30;;;18.80;99.90;;;;;;5002891;28;20072;-63
2023/08/23 07:03:44;;;;;;;21.85;15.65;;;18.60;99.90;;;;;;5008901;28;20056;-62
2023/08/23 07:06:14;;;;;;;25.25;17.15;;;20.70;99.90;;;;;;5009844;28;20085;-64
2023/08/23 07:08:42;;;;;;;21.58;15.30;;;19.20;82.50;;;;;;5004455;28;20042;-62
2023/08/23 07:11:08;;;;;;;23.15;16.40;;;18.90;37.70;;;;;;5003035;28;20076;-60
2023/08/23 07:13:34;;;;;;;23.70;17.13;;;19.30;45.80;;;;;;5006859;28;20085;-61
2023/08/23 07:16:00;;;;;;;24.75;16.58;;;18.80;34.00;;;;;;5009085;28;20057;-61
2023/08/23 07:18:26;;;;;;;20.10;13.85;;;19.00;18.50;;;;;;5009900;28;20034;-61
2023/08/23 07:20:51;;;;;;;22.45;15.05;;;19.20;9.30;;;;;;5010219;28;20075;-61
2023/08/23 07:23:17;;;;;;;21.13;15.63;;;19.70;1.00;;;;;;5009902;28;20416;-61
2023/08/23 07:25:44;;;;;;;19.17;14.30;;;19.30;1.00;;;;;;5009777;28;20042;-61
2023/08/23 07:28:11;;;;;;;17.83;13.77;;;19.30;1.00;;;;;;5010485;28;20053;-61
2023/08/23 07:30:37;;;;;;;23.13;14.52;;;19.50;1.00;;;;;;4992265;28;20121;-60
2023/08/23 07:33:03;;;;;;;21.23;16.13;;;19.80;1.00;;;;;;5006416;28;20041;-61
2023/08/23 07:35:29;;;;;;;23.27;13.82;;;19.80;1.00;;;;;;5010415;28;20037;-61
2023/08/23 07:37:55;;;;;;;24.38;13.93;;;19.40;1.00;;;;;;5003399;28;20038;-61
2023/08/23 07:40:21;;;;;;;18.95;13.25;;;19.60;1.00;;;;;;5010601;28;20121;-61
2023/08/23 07:42:46;;;;;;;20.58;13.82;;;19.80;1.00;;;;;;5005876;28;20123;-61
2023/08/23 07:45:12;;;;;;;18.08;12.35;;;19.90;1.00;;;;;;5010050;28;20037;-61
2023/08/23 07:47:38;;;;;;;20.33;12.40;;;19.70;99.90;;;;;;4992784;28;20042;-60
2023/08/23 07:50:04;;;;;;;18.33;11.32;;;19.90;99.90;;;;;;5001871;28;20042;-61
2023/08/23 07:52:30;;;;;;;21.60;13.27;;;20.00;99.90;;;;;;5008986;28;20069;-61
2023/08/23 07:54:56;;;;;;;17.25;11.00;;;20.10;99.90;;;;;;5007918;28;20049;-61
2023/08/23 07:57:21;;;;;;;14.55;8.50;;;19.90;99.90;;;;;;5009415;28;20038;-61
2023/08/23 07:59:47;;;;;;;19.48;11.30;;;19.90;99.90;;;;;;5010322;28;20038;-61
2023/08/23 08:02:13;;;;;;;19.00;10.50;;;19.70;99.90;;;;;;5005705;28;20037;-60
2023/08/23 08:04:38;;;;;;;18.92;10.57;;;21.10;99.90;;;;;;5008904;28;20049;-61
2023/08/23 08:07:04;;;;;;;18.63;11.88;;;20.00;91.00;;;;;;5007964;28;20049;-61
2023/08/23 08:09:31;;;;;;;16.92;10.60;;;20.50;1.00;;;;;;5007576;28;20026;-61
2023/08/23 08:11:56;;;;;;;13.98;9.90;;;20.50;14.40;;;;;;5003302;28;20037;-61
2023/08/23 08:14:22;;;;;;;14.40;10.07;;;20.90;35.60;;;;;;5005290;28;20042;-61
2023/08/23 08:16:47;;;;;;;13.90;9.43;;;21.10;1.00;;;;;;5007511;28;20495;-61
2023/08/23 08:19:13;;;;;;;18.83;11.45;;;21.20;1.00;;;;;;5008462;28;20496;-60
2023/08/23 08:21:40;;;;;;;18.55;12.07;;;20.20;1.00;;;;;;5009464;28;20041;-61
2023/08/23 08:24:06;;;;;;;16.02;10.45;;;21.30;99.90;;;;;;5008542;28;20076;-61
2023/08/23 08:26:32;;;;;;;16.15;9.98;;;20.40;1.00;;;;;;5009419;28;20135;-61
2023/08/23 08:28:57;;;;;;;13.52;8.07;;;21.00;99.90;;;;;;5007808;28;20192;-61
2023/08/23 08:31:23;;;;;;;18.63;10.75;;;21.30;99.90;;;;;;5009799;28;20029;-61
2023/08/23 08:33:49;;;;;;;14.77;9.07;;;20.90;99.90;;;;;;5007290;28;20408;-61
2023/08/23 08:36:15;;;;;;;15.82;8.80;;;20.90;75.80;;;;;;5010094;28;20037;-61
2023/08/23 08:38:41;;;;;;;16.00;8.30;;;20.40;63.10;;;;;;5007088;28;20042;-61
2023/08/23 08:41:08;;;;;;;13.60;7.88;;;21.30;1.00;;;;;;5007767;28;20041;-61
2023/08/23 08:43:35;;;;;;;12.93;7.93;;;21.30;99.90;;;;;;5009420;28;20061;-61
2023/08/23 08:46:01;;;;;;;15.35;9.77;;;21.60;1.00;;;;;;5007627;28;20072;-61
2023/08/23 08:48:26;;;;;;;19.38;11.60;;;20.40;1.00;;;;;;5008430;28;20037;-61
2023/08/23 08:50:55;;;;;;;15.52;9.70;;;21.40;1.00;;;;;;5008876;28;20428;-61
2023/08/23 08:53:23;;;;;;;11.75;8.35;;;21.40;21.90;;;;;;5005929;28;20077;-61
2023/08/23 08:55:50;;;;;;;12.07;8.40;;;20.60;1.00;;;;;;5009236;28;20217;-61
2023/08/23 08:58:19;;;;;;;11.45;8.23;;;21.60;1.00;;;;;;5007801;28;20120;-61
2023/08/23 09:00:52;;;;;;;12.30;8.30;;;21.70;99.90;;;;;;5005227;28;20381;-61
2023/08/23 09:03:19;;;;;;;13.03;9.63;;;21.60;99.90;;;;;;5008340;28;20117;-61
2023/08/23 09:05:48;;;;;;;14.05;7.60;;;21.70;1.00;;;;;;5006312;28;20308;-61
2023/08/23 09:08:14;;;;;;;10.30;6.72;;;21.00;99.90;;;;;;4999586;28;20033;-61
2023/08/23 09:10:40;;;;;;;12.15;7.07;;;20.80;99.90;;;;;;5006167;28;20042;-61
2023/08/23 09:13:06;;;;;;;14.82;9.27;;;22.10;99.90;;;;;;5005746;28;20112;-61
2023/08/23 09:15:32;;;;;;;12.43;6.45;;;21.00;99.90;;;;;;5007324;28;20472;-61
2023/08/23 09:17:59;;;;;;;17.45;10.50;;;21.00;99.90;;;;;;5003768;28;20044;-60
2023/08/23 09:20:25;;;;;;;12.73;7.15;;;22.10;99.90;;;;;;5007340;28;20044;-61
2023/08/23 09:22:55;;;;;;;10.35;6.00;;;22.20;99.90;;;;;;5006190;28;20033;-61
2023/08/23 09:25:24;;;;;;;9.88;5.90;;;21.50;1.00;;;;;;5006533;28;20065;-61
2023/08/23 09:27:53;;;;;;;11.98;6.40;;;22.10;1.00;;;;;;5003985;28;20038;-61
2023/08/23 09:30:20;;;;;;;9.55;6.10;;;22.20;1.00;;;;;;5002405;28;20042;-61
2023/08/23 09:32:46;;;;;;;10.45;6.55;;;22.10;99.90;;;;;;5004816;28;20029;-61
2023/08/23 09:35:13;;;;;;;11.55;6.72;;;21.80;99.90;;;;;;5007031;28;20045;-61
2023/08/23 09:37:40;;;;;;;11.52;6.13;;;22.30;99.90;;;;;;5001783;28;20507;-61
2023/08/23 09:40:21;;;;;;;15.45;6.63;;;22.90;99.90;;;;;;5007276;28;20435;-61
2023/08/23 09:42:47;;;;;;;12.55;6.65;;;22.30;99.90;;;;;;5003952;28;20046;-61
2023/08/23 09:45:18;;;;;;;9.60;6.05;;;22.80;99.90;;;;;;5007542;28;20558;-61
2023/08/23 09:47:51;;;;;;;10.35;6.70;;;22.90;99.90;;;;;;5004680;28;20037;-61
2023/08/23 09:50:22;;;;;;;10.70;7.20;;;22.60;99.90;;;;;;5006315;28;20042;-61
2023/08/23 09:53:19;;;;;;;11.98;6.72;;;22.20;99.90;;;;;;5005190;28;20049;-61
2023/08/23 09:55:46;;;;;;;14.38;7.32;;;22.70;99.90;;;;;;4995939;28;20129;-61
2023/08/23 09:58:12;;;;;;;10.07;6.78;;;22.90;99.90;;;;;;5006634;28;20045;-61
2023/08/23 10:00:38;;;;;;;10.02;5.78;;;22.50;99.90;;;;;;5007018;28;20076;-61
2023/08/23 10:03:04;;;;;;;11.77;7.07;;;22.90;99.90;;;;;;5004083;28;20089;-61
2023/08/23 10:05:30;;;;;;;12.65;6.30;;;22.90;99.90;;;;;;5002871;28;20038;-61
2023/08/23 10:07:57;;;;;;;11.80;6.03;;;22.80;99.90;;;;;;5006155;28;20634;-61
2023/08/23 10:10:23;;;;;;;11.90;5.70;;;22.90;99.90;;;;;;5008411;28;20045;-61
2023/08/23 10:12:53;;;;;;;10.75;6.90;;;22.50;99.90;;;;;;5006393;28;20149;-61
2023/08/23 10:15:26;;;;;;;12.30;6.40;;;22.40;99.90;;;;;;5012361;28;20061;-61
2023/08/23 10:17:53;;;;;;;12.55;6.28;;;22.60;99.90;;;;;;5005026;28;20066;-61
2023/08/23 10:20:22;;;;;;;9.85;4.90;;;22.80;99.90;;;;;;5011570;28;20159;-61
2023/08/23 10:22:48;;;;;;;9.15;4.70;;;22.70;99.90;;;;;;5009508;28;20040;-61
2023/08/23 10:25:17;;;;;;;8.18;4.93;;;22.80;99.90;;;;;;5010863;28;20042;-61
2023/08/23 10:27:51;;;;;;;9.00;4.57;;;22.80;99.90;;;;;;5010685;28;20147;-61
2023/08/23 10:30:27;;;;;;;10.27;5.78;;;22.90;99.90;;;;;;5011526;28;20044;-61
2023/08/23 10:33:08;;;;;;;9.30;5.45;;;22.50;99.90;;;;;;5007354;28;20030;-61
2023/08/23 10:35:35;;;;;;;9.27;4.35;;;22.40;99.90;;;;;;5007515;28;20420;-61
2023/08/23 10:38:04;;;;;;;11.75;4.90;;;22.80;99.90;;;;;;5011416;28;20211;-61
2023/08/23 10:40:31;;;;;;;8.05;3.70;;;22.60;89.50;;;;;;5006225;28;20034;-61
2023/08/23 10:42:58;;;;;;;7.72;4.28;;;22.80;93.10;;;;;;5012068;28;20381;-61
2023/08/23 10:45:24;;;;;;;10.65;4.30;;;23.00;97.90;;;;;;5012106;28;20503;-61
2023/08/23 10:47:51;;;;;;;9.32;4.05;;;22.90;79.90;;;;;;5009577;28;20459;-61
2023/08/23 10:50:18;;;;;;;13.07;4.10;;;23.00;51.40;;;;;;5011910;28;20034;-61
2023/08/23 10:52:44;;;;;;;11.07;5.18;;;23.10;37.40;;;;;;5011729;28;20046;-61
2023/08/23 10:55:10;;;;;;;8.27;4.78;;;23.00;51.90;;;;;;5012123;28;20029;-61
2023/08/23 10:57:35;;;;;;;8.05;3.83;;;23.00;66.60;;;;;;5010476;28;20048;-61
2023/08/23 11:00:02;;;;;;;7.47;3.13;;;23.30;50.90;;;;;;5009840;28;20068;-61
2023/08/23 11:02:30;;;;;;;7.88;3.38;;;23.40;4.50;;;;;;5006795;28;20574;-61
2023/08/23 11:04:56;;;;;;;8.82;3.70;;;23.30;1.00;;;;;;5004342;28;20038;-61
2023/08/23 11:07:26;;;;;;;10.90;3.03;;;23.50;1.00;;;;;;5005953;28;20752;-61
2023/08/23 11:09:52;;;;;;;10.77;4.68;;;23.80;1.00;;;;;;5004578;28;20096;-61
2023/08/23 11:12:18;;;;;;;10.40;3.92;;;24.40;1.00;;;;;;5006363;28;20510;-61
2023/08/23 11:14:44;;;;;;;7.78;4.15;;;23.50;1.00;;;;;;5004318;28;20041;-60
2023/08/23 11:17:11;;;;;;;10.23;4.10;;;23.20;1.00;;;;;;5007688;28;20034;-61
2023/08/23 11:19:38;;;;;;;10.00;3.90;;;23.70;1.00;;;;;;5001782;28;20570;-61
2023/08/23 11:22:04;;;;;;;6.85;3.60;;;24.10;1.00;;;;;;5008237;28;20491;-60
2023/08/23 11:24:30;;;;;;;10.82;4.45;;;23.60;1.00;;;;;;5007800;28;20048;-61
2023/08/23 11:26:55;;;;;;;7.85;3.47;;;23.50;1.00;;;;;;5008210;28;20499;-61
2023/08/23 11:29:22;;;;;;;9.48;3.20;;;23.40;1.00;;;;;;5008804;28;20034;-61
2023/08/23 11:31:55;;;;;;;8.82;4.13;;;23.50;1.00;;;;;;5010616;28;20052;-61
2023/08/23 11:34:21;;;;;;;7.90;2.83;;;23.70;1.00;;;;;;5009251;28;20065;-61
2023/08/23 11:36:46;;;;;;;8.55;2.42;;;23.60;1.00;;;;;;5011624;28;20757;-61
2023/08/23 11:39:13;;;;;;;7.13;2.30;;;24.00;1.00;;;;;;5007877;28;20038;-61
2023/08/23 11:41:40;;;;;;;9.43;4.03;;;23.50;99.90;;;;;;5011532;28;20037;-61
2023/08/23 11:44:07;;;;;;;7.05;3.00;;;24.40;1.00;;;;;;5010469;28;20038;-61
2023/08/23 11:46:38;;;;;;;7.45;2.55;;;24.10;1.00;;;;;;5011391;28;20037;-61
2023/08/23 11:49:05;;;;;;;6.82;2.90;;;24.10;1.00;;;;;;5010665;28;20073;-61
2023/08/23 11:51:44;;;;;;;8.20;3.25;;;25.20;99.90;;;;;;5011048;28;20084;-62
2023/08/23 11:54:10;;;;;;;7.30;3.33;;;25.20;99.90;;;;;;5010481;28;20066;-61
2023/08/23 11:56:43;;;;;;;7.55;2.72;;;25.30;99.90;;;;;;5011339;28;20455;-61
2023/08/23 11:59:08;;;;;;;7.20;3.13;;;24.70;99.90;;;;;;5007579;28;20462;-61
2023/08/23 12:01:35;;;;;;;7.07;2.97;;;25.50;99.90;;;;;;5005728;28;20128;-61
2023/08/23 12:04:02;;;;;;;6.82;2.67;;;25.60;99.90;;;;;;5011343;28;20070;-62
2023/08/23 12:08:28;;;;;;;6.07;1.90;;;24.80;99.90;;;;;;5060306;27;20468;-41
2023/08/23 12:10:54;;;;;;;5.82;2.03;;;25.10;99.90;;;;;;5057106;28;20526;-39
2023/08/23 12:13:19;;;;;;;10.75;2.30;;;24.60;99.90;;;;;;5073771;28;20043;-36
2023/08/23 12:15:45;;;;;;;7.35;2.05;;;24.60;99.90;;;;;;5074791;28;20037;-40
2023/08/23 12:18:11;;;;;;;6.35;1.80;;;23.60;99.90;;;;;;5065089;28;20048;-40
2023/08/23 12:20:36;;;;;;;5.95;2.10;;;23.60;99.90;;;;;;5071305;28;20033;-40
2023/08/23 12:23:02;;;;;;;7.45;2.40;;;23.70;99.90;;;;;;5054807;28;20041;-38
2023/08/23 12:25:28;;;;;;;6.32;2.28;;;23.10;99.90;;;;;;5065787;28;20083;-38
2023/08/23 12:27:53;;;;;;;7.57;2.38;;;23.20;99.90;;;;;;5077697;28;20394;-35
2023/08/23 12:30:19;;;;;;;8.90;3.33;;;22.80;99.90;;;;;;5066615;28;20033;-39
2023/08/23 12:32:45;;;;;;;11.63;4.70;;;23.20;99.90;;;;;;5061609;28;20250;-39
2023/08/23 12:35:10;;;;;;;10.05;4.10;;;22.90;1.00;;;;;;5066729;28;20036;-39